createdAt,value
2022-08-07T00:04:00.590Z,55.75
2022-08-07T00:09:00.303Z,55.77
2022-08-07T00:14:13.039Z,55.81
2022-08-07T00:19:09.526Z,56.09
2022-08-07T00:24:18.357Z,56.28
2022-08-07T00:29:15.414Z,55.99
2022-08-07T00:34:12.357Z,56.60
2022-08-07T00:39:16.421Z,56.68
2022-08-07T00:44:15.210Z,56.79
2022-08-07T00:49:11.630Z,57.19
2022-08-07T00:54:22.436Z,56.98
2022-08-07T00:59:20.206Z,57.24
2022-08-07T01:04:30.309Z,57.46
2022-08-07T01:10:05.200Z,57.67
2022-08-07T01:14:45.390Z,57.46
2022-08-07T01:19:53.891Z,57.50
2022-08-07T01:24:50.908Z,57.92
2022-08-07T01:29:47.363Z,57.94
2022-08-07T01:34:47.296Z,58.24
2022-08-07T01:39:46.443Z,58.09
2022-08-07T01:44:43.450Z,58.30
2022-08-07T01:49:44.417Z,58.16
2022-08-07T01:54:41.266Z,58.43
2022-08-07T01:59:43.924Z,58.40
2022-08-07T02:04:52.633Z,58.52
2022-08-07T02:09:58.728Z,58.93
2022-08-07T02:14:56.467Z,59.03
2022-08-07T02:20:04.797Z,59.10
2022-08-07T02:25:07.212Z,59.17
2022-08-07T02:30:10.699Z,58.87
2022-08-07T02:35:11.037Z,59.21
2022-08-07T02:40:31.146Z,59.42
2022-08-07T02:46:00.352Z,59.51
2022-08-07T02:50:45.895Z,59.27
2022-08-07T02:56:03.101Z,59.42
2022-08-07T03:01:00.104Z,59.43
2022-08-07T03:05:56.709Z,59.62
2022-08-07T03:10:54.730Z,60.01
2022-08-07T03:15:56.431Z,59.78
2022-08-07T03:20:55.184Z,59.98
2022-08-07T03:25:59.805Z,59.87
2022-08-07T03:31:16.471Z,60.01
2022-08-07T03:36:14.718Z,60.33
2022-08-07T03:41:12.428Z,60.47
2022-08-07T03:46:18.227Z,60.41
2022-08-07T03:51:14.827Z,60.28
2022-08-07T03:56:13.628Z,60.58
2022-08-07T04:01:11.309Z,60.50
2022-08-07T04:06:08.549Z,60.50
2022-08-07T04:12:23.412Z,60.63
2022-08-07T04:16:43.077Z,61.06
2022-08-07T04:21:59.681Z,60.65
2022-08-07T04:27:05.250Z,60.91
2022-08-07T04:32:11.940Z,60.82
2022-08-07T04:37:20.160Z,60.80
2022-08-07T04:42:17.111Z,61.13
2022-08-07T04:47:57.222Z,61.19
2022-08-07T04:52:51.290Z,61.00
2022-08-07T04:58:24.427Z,61.08
2022-08-07T05:03:31.130Z,61.06
2022-08-07T05:08:59.672Z,61.28
2022-08-07T05:14:52.441Z,61.61
2022-08-07T05:19:12.494Z,61.50
2022-08-07T05:24:12.461Z,61.46
2022-08-07T05:29:10.799Z,61.43
2022-08-07T05:34:11.101Z,61.62
2022-08-07T05:40:05.793Z,61.53
2022-08-07T05:44:29.658Z,61.59
2022-08-07T05:49:26.256Z,61.63
2022-08-07T05:54:44.020Z,61.34
2022-08-07T05:59:57.143Z,61.37
2022-08-07T06:04:55.872Z,61.33
2022-08-07T06:10:04.516Z,61.70
2022-08-07T06:15:05.185Z,61.15
2022-08-07T06:20:03.595Z,59.89
2022-08-07T06:25:01.752Z,59.06
2022-08-07T06:30:00.306Z,58.57
2022-08-07T06:34:57.153Z,58.56
2022-08-07T06:40:16.505Z,58.02
2022-08-07T06:45:11.438Z,57.29
2022-08-07T06:50:08.309Z,57.04
2022-08-07T06:55:53.646Z,57.04
2022-08-07T07:00:47.145Z,57.00
2022-08-07T07:06:03.484Z,57.28
2022-08-07T07:11:14.526Z,57.10
2022-08-07T07:16:20.944Z,57.02
2022-08-07T07:21:19.888Z,56.65
2022-08-07T07:26:35.061Z,56.34
2022-08-07T07:31:39.918Z,56.05
2022-08-07T07:36:40.345Z,55.97
2022-08-07T07:42:01.835Z,55.71
2022-08-07T07:46:55.330Z,55.91
2022-08-07T07:51:58.633Z,55.70
2022-08-07T07:56:57.472Z,55.79
2022-08-07T08:02:01.634Z,55.85
2022-08-07T08:07:02.849Z,55.79
2022-08-07T08:12:05.182Z,55.73
2022-08-07T08:17:32.462Z,55.69
2022-08-07T08:22:37.733Z,55.87
2022-08-07T08:27:57.402Z,55.23
2022-08-07T08:32:59.522Z,55.31
2022-08-07T08:38:00.532Z,55.15
2022-08-07T08:43:16.167Z,54.40
2022-08-07T08:48:15.519Z,54.37
2022-08-07T08:53:19.685Z,53.92
2022-08-07T08:58:20.265Z,53.85
2022-08-07T09:03:48.051Z,53.97
2022-08-07T09:09:09.548Z,53.73
2022-08-07T09:14:17.427Z,53.51
2022-08-07T09:19:51.268Z,52.98
2022-08-07T09:24:55.560Z,52.73
2022-08-07T09:30:04.372Z,52.91
2022-08-07T09:36:04.206Z,52.31
2022-08-07T09:40:27.063Z,52.60
2022-08-07T09:47:37.116Z,52.52
2022-08-07T09:52:09.661Z,52.05
2022-08-07T09:56:39.284Z,52.01
2022-08-07T10:01:51.718Z,51.89
2022-08-07T10:06:56.960Z,51.80
2022-08-07T10:12:21.502Z,51.89
2022-08-07T10:17:18.466Z,51.65
2022-08-07T10:22:17.125Z,51.76
2022-08-07T10:27:17.872Z,51.62
2022-08-07T10:32:51.348Z,51.33
2022-08-07T10:38:15.451Z,51.52
2022-08-07T10:43:34.266Z,51.43
2022-08-07T10:48:35.586Z,51.32
2022-08-07T10:54:04.642Z,50.86
2022-08-07T10:59:10.167Z,50.62
2022-08-07T11:04:31.492Z,50.90
2022-08-07T11:10:07.678Z,50.29
2022-08-07T11:15:00.672Z,50.14
2022-08-07T11:20:06.619Z,50.08
2022-08-07T11:25:26.563Z,49.85
2022-08-07T11:30:41.552Z,49.72
2022-08-07T11:35:59.494Z,49.91
2022-08-07T11:41:04.435Z,49.12
2022-08-07T11:46:10.936Z,49.23
2022-08-07T11:51:35.076Z,48.73
2022-08-07T11:56:41.436Z,48.50
2022-08-07T12:02:07.100Z,48.57
2022-08-07T12:07:27.614Z,48.60
2022-08-07T12:12:39.269Z,48.41
2022-08-07T12:17:59.365Z,48.48
2022-08-07T12:23:14.677Z,48.54
2022-08-07T12:28:24.116Z,47.97
2022-08-07T12:33:30.833Z,47.93
2022-08-07T12:38:57.305Z,47.62
2022-08-07T12:44:04.233Z,47.90
2022-08-07T12:49:39.637Z,47.88
2022-08-07T12:54:41.423Z,47.51
2022-08-07T12:59:54.220Z,47.66
2022-08-07T13:05:15.159Z,47.41
2022-08-07T13:10:39.671Z,47.73
2022-08-07T13:15:47.692Z,47.30
2022-08-07T13:20:51.032Z,47.20
2022-08-07T13:26:00.889Z,47.11
2022-08-07T13:31:06.480Z,47.32
2022-08-07T13:36:17.402Z,47.18
2022-08-07T13:41:35.060Z,46.81
2022-08-07T13:46:33.771Z,47.03
2022-08-07T13:52:22.682Z,46.82
2022-08-07T13:56:55.907Z,46.74
2022-08-07T14:02:10.418Z,46.40
2022-08-07T14:07:09.410Z,45.85
2022-08-07T14:12:10.625Z,45.85
2022-08-07T14:17:32.441Z,46.15
2022-08-07T14:22:34.752Z,45.84
2022-08-07T14:28:10.383Z,45.90
2022-08-07T14:32:56.293Z,45.63
2022-08-07T14:38:05.594Z,45.71
2022-08-07T14:43:58.902Z,45.45
2022-08-07T14:48:32.603Z,44.98
2022-08-07T14:54:08.780Z,44.93
2022-08-07T14:58:54.948Z,45.50
2022-08-07T15:03:52.484Z,45.02
2022-08-07T15:14:12.405Z,45.10
2022-08-07T15:19:10.038Z,45.43
2022-08-07T15:25:14.460Z,45.15
2022-08-07T15:30:10.912Z,45.26
2022-08-07T15:34:56.825Z,44.96
2022-08-07T15:40:01.070Z,45.52
2022-08-07T15:44:57.597Z,45.20
2022-08-07T15:50:05.813Z,44.95
2022-08-07T15:55:04.149Z,44.91
2022-08-07T16:00:06.319Z,44.70
2022-08-07T16:05:04.431Z,44.72
2022-08-07T16:10:14.952Z,44.67
2022-08-07T16:15:57.806Z,44.74
2022-08-07T16:21:44.458Z,44.54
2022-08-07T16:26:30.818Z,44.50
2022-08-07T16:31:51.451Z,44.75
2022-08-07T16:38:03.893Z,44.48
2022-08-07T16:42:52.299Z,44.85
2022-08-07T16:48:13.891Z,44.81
2022-08-07T16:54:02.196Z,44.61
2022-08-07T16:59:15.214Z,44.55
